Time;durP1;ratioP1;P1;durP2;ratioP2;P2;SDS_P1;SDS_P2;PMS_P1;PMS_P2;Temp;Humidity;BMP_temperature;BMP_pressure;BME280_temperature;BME280_humidity;BME280_pressure;Samples;Min_cycle;Max_cycle;Signal;HPM_P1;HPM_P2
2023/10/08 00:01:18;;;;;;;6.23;3.20;;;;;;;11.10;80.51;99987.88;5120867;27;20218;-64
2023/10/08 00:03:48;;;;;;;10.33;4.53;;;;;;;11.11;80.26;99968.94;5120970;27;20211;-65
2023/10/08 00:06:20;;;;;;;7.40;3.73;;;;;;;11.11;80.48;99961.19;5132615;27;20195;-65
2023/10/08 00:08:48;;;;;;;4.53;3.60;;;;;;;11.13;80.40;99966.34;5123672;27;20203;-64
2023/10/08 00:11:18;;;;;;;8.77;3.97;;;;;;;11.15;80.61;99963.72;5126494;27;20199;-65
2023/10/08 00:13:48;;;;;;;10.27;4.47;;;;;;;11.08;80.71;99956.13;5119407;27;20226;-65
2023/10/08 00:16:17;;;;;;;7.43;3.87;;;;;;;11.07;80.94;99954.38;5122534;27;20211;-65
2023/10/08 00:18:50;;;;;;;8.47;3.63;;;;;;;11.05;81.26;99956.16;5121104;27;20645;-66
2023/10/08 00:21:26;;;;;;;8.33;4.07;;;;;;;11.08;81.62;99955.22;5131702;27;20209;-64
2023/10/08 00:23:58;;;;;;;9.23;3.80;;;;;;;11.08;81.30;99948.38;5115776;27;20220;-63
2023/10/08 00:26:30;;;;;;;6.27;3.67;;;;;;;11.08;80.91;99942.34;5123518;27;20530;-67
2023/10/08 00:29:06;;;;;;;8.40;4.67;;;;;;;11.12;81.26;99942.28;5123685;27;20661;-64
2023/10/08 00:31:38;;;;;;;8.80;4.30;;;;;;;11.12;81.54;99936.28;5127176;27;20208;-64
2023/10/08 00:34:11;;;;;;;8.50;4.10;;;;;;;11.13;81.83;99935.41;5129708;27;20204;-65
2023/10/08 00:36:39;;;;;;;9.30;4.30;;;;;;;11.10;81.41;99950.91;5131433;27;20268;-66
2023/10/08 00:39:13;;;;;;;9.57;4.03;;;;;;;11.11;81.57;99961.19;5125184;27;20225;-66
2023/10/08 00:41:43;;;;;;;6.30;4.03;;;;;;;11.11;81.63;99950.88;5133494;27;20204;-65
2023/10/08 00:44:15;;;;;;;6.57;3.50;;;;;;;11.13;81.48;99956.03;5126637;27;20215;-66
2023/10/08 00:46:48;;;;;;;7.43;4.00;;;;;;;11.12;81.71;99955.19;5128557;27;20203;-65
2023/10/08 00:49:39;;;;;;;5.37;3.43;;;;;;;11.14;81.86;99952.56;5131244;27;20203;-64
2023/10/08 00:52:26;;;;;;;6.90;3.60;;;;;;;11.16;81.43;99931.91;5130417;27;20203;-64
2023/10/08 00:57:43;;;;;;;7.20;3.80;;;;;;;11.13;80.81;99930.25;5109012;27;20564;-66
2023/10/08 01:00:22;;;;;;;6.87;4.07;;;;;;;11.11;80.93;99924.25;5123095;27;20231;-64
2023/10/08 01:03:00;;;;;;;6.67;3.50;;;;;;;11.06;80.91;99937.22;5122385;27;20208;-64
2023/10/08 01:05:42;;;;;;;7.07;3.83;;;;;;;11.02;81.08;99953.63;5124906;27;20562;-64
2023/10/08 01:08:14;;;;;;;6.77;3.60;;;;;;;11.00;81.19;99955.34;5126693;27;20203;-64
2023/10/08 01:10:46;;;;;;;5.17;3.47;;;;;;;10.99;81.35;99940.75;5121040;27;20235;-64
2023/10/08 01:13:20;;;;;;;8.20;4.20;;;;;;;10.97;81.29;99941.66;5119972;27;20623;-65
2023/10/08 01:15:51;;;;;;;10.40;4.40;;;;;;;10.98;81.46;99951.09;5118516;27;20223;-65
2023/10/08 01:18:29;;;;;;;9.37;4.50;;;;;;;11.02;81.94;99942.44;5128581;27;20195;-64
2023/10/08 01:21:04;;;;;;;8.80;3.90;;;;;;;11.07;81.61;99936.34;5127337;27;20203;-65
2023/10/08 01:23:33;;;;;;;6.30;3.63;;;;;;;11.09;81.28;99938.91;5117121;27;20227;-64
2023/10/08 01:26:10;;;;;;;7.30;3.90;;;;;;;11.10;81.07;99946.59;5132048;27;20661;-66
2023/10/08 01:28:39;;;;;;;6.83;4.07;;;;;;;11.12;81.21;99938.88;5128747;27;20199;-65
2023/10/08 01:31:10;;;;;;;9.80;4.13;;;;;;;11.15;80.98;99927.63;5128841;27;20206;-64
2023/10/08 01:33:38;;;;;;;11.50;4.17;;;;;;;11.11;80.59;99919.09;5126249;27;20609;-64
2023/10/08 01:36:12;;;;;;;6.60;3.80;;;;;;;11.10;80.91;99927.72;5127762;27;20263;-65
2023/10/08 01:38:42;;;;;;;8.17;3.60;;;;;;;11.11;80.92;99934.56;5122672;27;20235;-63
2023/10/08 01:41:18;;;;;;;9.60;3.70;;;;;;;11.10;80.33;99936.28;5118719;27;20195;-65
2023/10/08 01:43:47;;;;;;;7.63;4.47;;;;;;;11.05;80.22;99942.41;5127111;27;20211;-64
2023/10/08 01:46:16;;;;;;;10.13;3.80;;;;;;;11.06;80.71;99944.09;5119831;27;20207;-64
2023/10/08 01:48:44;;;;;;;14.50;4.10;;;;;;;11.02;80.30;99951.03;5130811;27;20260;-64
2023/10/08 01:51:24;;;;;;;8.83;4.37;;;;;;;11.01;80.77;99977.69;5126957;27;20601;-65
2023/10/08 01:53:57;;;;;;;8.83;4.07;;;;;;;11.03;80.53;99982.81;5128378;27;20202;-63
2023/10/08 01:56:26;;;;;;;6.47;3.73;;;;;;;11.02;80.85;99979.41;5125203;27;20213;-64
2023/10/08 01:58:54;;;;;;;9.30;3.53;;;;;;;11.02;80.50;99973.38;5129391;27;20654;-64
2023/10/08 02:01:23;;;;;;;8.17;3.57;;;;;;;11.02;80.72;99960.50;5116897;27;20199;-63
2023/10/08 02:03:51;;;;;;;9.17;3.90;;;;;;;11.03;80.43;99978.50;5129598;27;20199;-65
2023/10/08 02:06:20;;;;;;;7.30;4.10;;;;;;;11.01;81.28;99971.66;5123435;27;20212;-63
2023/10/08 02:08:48;;;;;;;9.77;4.30;;;;;;;11.00;80.86;99960.50;5120763;27;20199;-65
2023/10/08 02:11:20;;;;;;;8.93;3.90;;;;;;;11.05;80.76;99969.03;5114858;27;20227;-65
2023/10/08 02:13:48;;;;;;;9.37;3.70;;;;;;;11.04;80.88;99975.06;5120406;27;20208;-66
2023/10/08 02:16:19;;;;;;;6.63;3.60;;;;;;;11.03;80.89;99973.34;5121463;27;20264;-65
2023/10/08 02:18:47;;;;;;;9.07;4.00;;;;;;;11.01;81.09;99976.81;5118679;27;20294;-64
2023/10/08 02:21:18;;;;;;;9.53;4.50;;;;;;;11.02;81.05;99971.66;5120424;27;20203;-65
2023/10/08 02:23:47;;;;;;;8.53;3.77;;;;;;;11.03;81.22;99973.34;5129277;27;20291;-65
2023/10/08 02:26:19;;;;;;;10.43;4.10;;;;;;;11.04;80.82;99975.06;5122668;27;20663;-64
2023/10/08 02:28:47;;;;;;;6.63;3.70;;;;;;;11.03;80.79;99981.09;5118844;27;20229;-65
2023/10/08 02:31:15;;;;;;;10.07;4.50;;;;;;;11.03;80.52;99983.66;5120333;27;20553;-64
2023/10/08 02:33:43;;;;;;;9.63;4.20;;;;;;;10.99;80.96;100007.78;5129862;27;20726;-64
2023/10/08 02:36:13;;;;;;;7.27;4.23;;;;;;;10.97;81.21;100009.56;5122384;27;20319;-64
2023/10/08 02:38:41;;;;;;;8.30;4.13;;;;;;;10.96;80.96;100018.13;5125516;27;20237;-66
2023/10/08 02:41:10;;;;;;;9.50;5.20;;;;;;;10.93;81.42;100019.91;5123989;27;20230;-66
2023/10/08 02:43:42;;;;;;;8.83;3.90;;;;;;;10.92;81.03;100019.06;5118338;27;20677;-65
2023/10/08 02:46:14;;;;;;;8.07;3.53;;;;;;;10.91;81.33;100022.53;5120407;27;20533;-65
2023/10/08 02:48:43;;;;;;;7.07;4.03;;;;;;;10.92;81.54;100034.53;5120013;28;20203;-64
2023/10/08 02:51:14;;;;;;;7.90;4.03;;;;;;;10.93;81.24;100022.50;5124508;28;20218;-64
2023/10/08 02:53:43;;;;;;;10.70;4.77;;;;;;;10.92;81.43;100033.69;5114903;28;20206;-64
2023/10/08 02:56:14;;;;;;;9.67;3.90;;;;;;;10.89;81.45;100039.72;5116276;28;20227;-64
2023/10/08 02:58:44;;;;;;;6.73;3.90;;;;;;;10.91;81.34;100038.00;5124463;28;20204;-64
2023/10/08 03:01:13;;;;;;;8.23;3.87;;;;;;;10.91;81.56;100030.25;5129690;28;20621;-64
2023/10/08 03:03:41;;;;;;;8.40;4.23;;;;;;;10.87;81.34;100036.31;5122449;27;20203;-64
2023/10/08 03:06:12;;;;;;;8.73;3.70;;;;;;;10.86;81.36;100039.75;5125900;28;20677;-64
2023/10/08 03:08:42;;;;;;;9.83;3.70;;;;;;;10.83;81.42;100030.34;5116596;28;20313;-64
2023/10/08 03:11:16;;;;;;;7.97;3.57;;;;;;;10.82;81.44;100032.94;5125345;28;20670;-65
2023/10/08 03:13:51;;;;;;;6.67;3.30;;;;;;;10.83;81.02;100030.34;5128380;28;20229;-64
2023/10/08 03:16:27;;;;;;;5.30;3.13;;;;;;;10.82;80.16;100038.09;5116585;28;20654;-66
2023/10/08 03:18:57;;;;;;;6.30;3.10;;;;;;;10.85;79.62;100049.22;5118103;28;20192;-67
2023/10/08 03:21:48;;;;;;;5.43;2.93;;;;;;;10.85;79.33;100053.53;5117573;28;20203;-65
2023/10/08 03:24:29;;;;;;;7.30;3.30;;;;;;;10.85;78.94;100040.63;5121968;28;20203;-65
2023/10/08 03:27:05;;;;;;;7.57;2.80;;;;;;;10.84;78.29;100050.09;5115876;28;20618;-65
2023/10/08 03:29:40;;;;;;;5.90;2.87;;;;;;;10.78;77.74;100039.84;5124315;27;20599;-65
2023/10/08 03:32:16;;;;;;;6.97;3.10;;;;;;;10.71;76.79;100064.00;5126269;28;20201;-65
2023/10/08 03:34:46;;;;;;;7.47;2.60;;;;;;;10.63;76.25;100066.66;5125407;28;20203;-66
2023/10/08 03:37:20;;;;;;;6.17;2.10;;;;;;;10.56;75.58;100072.75;5125462;27;20288;-64
2023/10/08 03:39:52;;;;;;;5.73;2.23;;;;;;;10.52;75.25;100075.38;5130881;27;20745;-63
2023/10/08 03:42:22;;;;;;;6.20;2.43;;;;;;;10.49;74.67;100073.69;5126248;27;20221;-64
2023/10/08 03:44:52;;;;;;;3.57;1.93;;;;;;;10.54;74.03;100084.81;5132258;27;20734;-64
2023/10/08 03:47:22;;;;;;;4.83;2.10;;;;;;;10.55;73.15;100075.34;5129388;27;20221;-65
2023/10/08 03:49:51;;;;;;;6.33;2.33;;;;;;;10.53;72.75;100088.25;5128994;27;20230;-64
2023/10/08 03:52:23;;;;;;;3.00;1.80;;;;;;;10.50;71.72;100085.72;5127196;27;20230;-68
2023/10/08 03:55:04;;;;;;;8.30;2.03;;;;;;;10.46;71.57;100101.22;5121718;27;20206;-65
2023/10/08 03:57:42;;;;;;;3.60;1.90;;;;;;;10.43;71.12;100109.84;5124960;27;20302;-66
2023/10/08 04:00:17;;;;;;;3.80;1.83;;;;;;;10.38;70.75;100104.72;5130940;27;20243;-66
2023/10/08 04:02:54;;;;;;;3.87;1.50;;;;;;;10.39;70.34;100116.72;5129554;27;20190;-64
2023/10/08 04:05:27;;;;;;;4.77;1.50;;;;;;;10.37;69.30;100112.47;5129355;27;20621;-65
2023/10/08 04:08:19;;;;;;;3.17;1.40;;;;;;;10.32;68.61;100119.38;5124720;27;20664;-70
2023/10/08 04:13:32;;;;;;;1.67;1.07;;;;;;;10.24;67.23;100127.16;5131391;27;20268;-66
2023/10/08 04:16:04;;;;;;;2.90;1.33;;;;;;;10.16;66.17;100128.91;5119300;27;20654;-64
2023/10/08 04:18:39;;;;;;;4.43;1.50;;;;;;;10.18;66.38;100134.91;5125022;27;20286;-64
2023/10/08 04:21:12;;;;;;;4.00;1.10;;;;;;;10.20;66.00;100135.78;5127426;27;20207;-64
2023/10/08 04:23:44;;;;;;;2.07;1.00;;;;;;;10.18;65.25;100145.22;5128375;27;20203;-64
2023/10/08 04:26:12;;;;;;;3.23;1.00;;;;;;;10.13;65.03;100157.28;5125567;27;20203;-64
2023/10/08 04:28:41;;;;;;;2.60;1.20;;;;;;;10.09;64.72;100159.03;5128476;27;20204;-64
2023/10/08 04:31:15;;;;;;;2.87;1.00;;;;;;;10.03;63.75;100164.22;5131481;27;20207;-66
2023/10/08 04:33:45;;;;;;;1.50;1.00;;;;;;;9.97;63.61;100169.41;5122055;27;20207;-63
2023/10/08 04:36:17;;;;;;;2.33;1.17;;;;;;;9.93;63.55;100176.28;5128025;27;20211;-65
2023/10/08 04:38:47;;;;;;;2.07;1.10;;;;;;;9.95;62.92;100176.28;5131894;27;20235;-63
2023/10/08 04:41:19;;;;;;;2.00;1.17;;;;;;;9.98;63.29;100181.44;5126105;27;20198;-63
2023/10/08 04:43:49;;;;;;;2.43;1.43;;;;;;;10.00;62.82;100184.81;5122887;27;20307;-64
2023/10/08 04:46:34;;;;;;;2.17;1.20;;;;;;;9.96;62.15;100180.56;5125741;27;20740;-64
2023/10/08 04:49:07;;;;;;;2.90;1.30;;;;;;;9.90;62.07;100178.03;5122193;27;20192;-66
2023/10/08 04:51:43;;;;;;;2.03;1.27;;;;;;;9.84;61.91;100196.09;5130429;27;20199;-64
2023/10/08 04:54:16;;;;;;;2.30;1.33;;;;;;;9.81;62.44;100194.41;5122018;27;20225;-64
2023/10/08 04:56:44;;;;;;;3.13;1.33;;;;;;;9.84;62.03;100199.53;5125372;27;20658;-66
2023/10/08 04:59:13;;;;;;;3.87;1.40;;;;;;;9.83;61.99;100205.53;5125652;27;20195;-65
2023/10/08 05:01:48;;;;;;;3.93;1.70;;;;;;;9.78;61.31;100203.84;5130475;27;20290;-64
2023/10/08 05:04:32;;;;;;;2.63;1.27;;;;;;;9.77;61.44;100209.88;5125725;27;20251;-64
2023/10/08 05:12:46;;;;;;;2.20;1.20;;;;;;;9.64;61.41;100216.78;5111678;28;20292;-65
2023/10/08 05:15:32;;;;;;;7.00;1.20;;;;;;;9.66;61.20;100222.78;5108954;28;20261;-65
2023/10/08 05:18:13;;;;;;;1.10;0.77;;;;;;;9.64;61.78;100227.06;5101515;28;20677;-64
2023/10/08 05:20:59;;;;;;;1.37;1.00;;;;;;;9.61;61.08;100233.09;5109782;28;20203;-64
2023/10/08 05:26:30;;;;;;;1.53;0.87;;;;;;;9.56;61.53;100234.81;5107278;28;20260;-63
2023/10/08 05:29:01;;;;;;;1.80;1.00;;;;;;;9.54;61.96;100236.56;5101066;28;20215;-63
2023/10/08 05:31:47;;;;;;;2.83;0.83;;;;;;;9.53;61.93;100241.69;5107253;28;20211;-67
2023/10/08 05:34:15;;;;;;;1.47;0.80;;;;;;;9.54;62.04;100251.16;5112824;28;20204;-60
2023/10/08 05:37:10;;;;;;;1.67;0.80;;;;;;;9.53;61.56;100265.69;5108540;28;20206;-62
2023/10/08 05:39:43;;;;;;;1.17;0.90;;;;;;;9.42;61.09;100270.03;5103852;28;20693;-65
2023/10/08 05:42:16;;;;;;;1.27;0.70;;;;;;;9.37;61.50;100267.47;5109128;28;20253;-65
2023/10/08 05:44:46;;;;;;;1.07;0.60;;;;;;;9.38;61.92;100281.19;5102872;27;20203;-66
2023/10/08 05:53:02;;;;;;;2.70;1.00;;;;;;;9.34;62.04;100305.19;5074564;28;20560;-65
2023/10/08 05:55:34;;;;;;;1.57;0.80;;;;;;;9.34;61.78;100300.06;5059134;28;20297;-64
2023/10/08 05:58:13;;;;;;;1.10;0.90;;;;;;;9.31;61.82;100315.50;5064281;28;20201;-64
2023/10/08 06:01:05;;;;;;;1.83;0.90;;;;;;;9.30;62.30;100313.78;5062702;28;20621;-65
2023/10/08 06:03:36;;;;;;;5.43;0.87;;;;;;;9.29;61.89;100328.38;5058568;28;20292;-65
2023/10/08 06:06:22;;;;;;;1.53;0.80;;;;;;;9.31;61.93;100338.63;5065723;28;20299;-65
2023/10/08 06:09:04;;;;;;;1.83;0.90;;;;;;;9.29;61.19;100343.78;5070003;28;20279;-65
2023/10/08 06:11:41;;;;;;;1.10;0.80;;;;;;;9.22;61.26;100351.53;5060540;28;20204;-64
2023/10/08 06:14:16;;;;;;;1.17;0.73;;;;;;;9.16;61.71;100353.22;5072043;28;20269;-65
2023/10/08 06:16:44;;;;;;;2.07;0.70;;;;;;;9.20;61.01;100359.22;5072022;28;20322;-64
2023/10/08 06:19:12;;;;;;;2.90;0.70;;;;;;;9.26;60.41;100355.78;5067720;28;20660;-66
2023/10/08 06:21:45;;;;;;;2.33;0.73;;;;;;;9.25;60.40;100366.94;5065969;28;20205;-65
2023/10/08 06:24:16;;;;;;;5.30;0.93;;;;;;;9.24;59.54;100367.78;5054394;28;20244;-64
2023/10/08 06:26:48;;;;;;;2.57;0.70;;;;;;;9.25;59.35;100372.09;5061038;28;20543;-64
2023/10/08 06:29:26;;;;;;;1.70;0.70;;;;;;;9.29;58.33;100387.50;5057844;28;20237;-65
2023/10/08 06:31:56;;;;;;;4.40;0.60;;;;;;;9.43;58.77;100387.50;5066211;28;20209;-64
2023/10/08 06:34:27;;;;;;;1.37;0.80;;;;;;;9.52;57.06;100387.47;5069037;28;20205;-67
2023/10/08 06:37:01;;;;;;;1.83;0.60;;;;;;;9.59;56.21;100396.88;5071606;28;20547;-66
2023/10/08 06:39:47;;;;;;;0.43;0.43;;;;;;;9.71;56.63;100397.72;5064332;28;20232;-65
2023/10/08 06:42:16;;;;;;;1.20;0.70;;;;;;;9.81;55.81;100396.84;5068528;28;20201;-65
2023/10/08 06:44:48;;;;;;;1.00;0.67;;;;;;;9.87;55.58;100401.97;5065362;28;20213;-65
2023/10/08 06:47:16;;;;;;;0.60;0.53;;;;;;;10.00;54.54;100406.22;5051801;28;20259;-65
2023/10/08 06:49:46;;;;;;;0.70;0.60;;;;;;;10.14;54.33;100413.88;5057596;28;20260;-65
2023/10/08 06:52:15;;;;;;;1.80;0.70;;;;;;;10.27;53.66;100425.00;5050870;28;20261;-64
2023/10/08 06:54:43;;;;;;;1.27;0.63;;;;;;;10.43;53.87;100425.81;5056146;28;20225;-66
2023/10/08 06:57:13;;;;;;;0.50;0.50;;;;;;;10.50;52.47;100430.94;5058855;28;20791;-66
2023/10/08 06:59:42;;;;;;;2.50;0.60;;;;;;;10.57;51.74;100424.88;5050447;28;20207;-66
2023/10/08 07:02:11;;;;;;;1.70;0.60;;;;;;;10.62;52.10;100433.44;5036000;28;20211;-62
2023/10/08 07:04:42;;;;;;;0.60;0.40;;;;;;;10.67;50.82;100437.72;5052866;28;20233;-62
2023/10/08 07:07:11;;;;;;;1.63;0.50;;;;;;;10.78;51.22;100444.50;5057813;28;20230;-61
2023/10/08 07:09:43;;;;;;;0.40;0.40;;;;;;;10.85;49.95;100437.59;5053358;28;20224;-63
2023/10/08 07:12:14;;;;;;;1.17;0.57;;;;;;;10.72;49.56;100454.03;5049789;28;20224;-63
2023/10/08 07:14:43;;;;;;;0.60;0.50;;;;;;;10.69;49.62;100459.19;5045673;28;20228;-64
2023/10/08 07:17:19;;;;;;;2.50;0.60;;;;;;;10.88;49.70;100463.38;5047881;28;20263;-63
2023/10/08 07:19:50;;;;;;;0.70;0.60;;;;;;;11.47;47.88;100446.59;5051250;28;20710;-59
2023/10/08 07:22:22;;;;;;;2.07;0.60;;;;;;;12.43;46.93;100457.66;5044874;28;20683;-63
2023/10/08 07:24:53;;;;;;;0.40;0.40;;;;;;;13.86;43.48;100453.75;5050181;28;20198;-58
2023/10/08 07:27:24;;;;;;;1.40;0.77;;;;;;;15.17;37.72;100451.84;5047523;28;20197;-60
2023/10/08 07:29:55;;;;;;;1.20;0.73;;;;;;;16.01;36.59;100443.69;5051876;28;20256;-60
2023/10/08 07:32:25;;;;;;;1.27;0.60;;;;;;;16.92;35.41;100454.94;5044990;28;20296;-58
2023/10/08 07:35:03;;;;;;;2.22;0.68;;;;;;;17.65;33.48;100462.94;5049726;28;20205;-57
2023/10/08 07:37:32;;;;;;;0.95;0.75;;;;;;;17.93;31.12;100475.03;5059435;28;20204;-57
2023/10/08 07:40:08;;;;;;;0.93;0.63;;;;;;;17.95;31.41;100478.47;5045036;28;20249;-59
2023/10/08 07:42:36;;;;;;;1.00;0.55;;;;;;;17.38;31.34;100468.19;5059208;28;20210;-60
2023/10/08 07:45:05;;;;;;;0.57;0.43;;;;;;;17.30;32.04;100480.59;5041437;28;20586;-69
2023/10/08 07:47:33;;;;;;;2.15;0.65;;;;;;;18.04;31.68;100494.66;5049808;28;20652;-61
2023/10/08 07:50:11;;;;;;;1.55;0.75;;;;;;;19.02;30.07;100483.19;5046589;28;20242;-60
2023/10/08 07:52:42;;;;;;;0.50;0.50;;;;;;;19.98;27.98;100485.34;5040432;28;20216;-61
2023/10/08 07:55:17;;;;;;;1.83;0.75;;;;;;;20.24;26.15;100482.44;5048182;28;20206;-62
2023/10/08 07:57:45;;;;;;;1.95;0.50;;;;;;;20.15;26.74;100482.84;5053721;28;20216;-60
2023/10/08 08:00:25;;;;;;;1.02;0.55;;;;;;;19.92;27.13;100486.47;5041997;28;20207;-60
2023/10/08 08:02:54;;;;;;;0.60;0.38;;;;;;;19.75;26.81;100484.56;5052501;28;20202;-61
2023/10/08 08:05:23;;;;;;;1.00;0.80;;;;;;;19.12;28.48;100488.06;5052270;28;20215;-62
2023/10/08 08:07:52;;;;;;;0.73;0.50;;;;;;;18.41;28.66;100495.94;5051471;28;20300;-59
2023/10/08 08:10:23;;;;;;;1.15;0.60;;;;;;;17.91;30.48;100505.56;5044756;28;20274;-60
2023/10/08 08:12:56;;;;;;;1.42;0.63;;;;;;;17.29;31.11;100515.34;5042459;28;20657;-62
2023/10/08 08:15:26;;;;;;;0.68;0.60;;;;;;;16.26;31.37;100511.44;5039398;28;20202;-62
2023/10/08 08:17:54;;;;;;;1.52;0.70;;;;;;;15.37;33.59;100514.56;5042689;28;20209;-60
2023/10/08 08:20:34;;;;;;;1.17;0.65;;;;;;;15.06;34.40;100523.91;5041524;28;20238;-62
2023/10/08 08:23:06;;;;;;;0.65;0.50;;;;;;;14.62;34.86;100518.81;5044762;28;20202;-60
2023/10/08 08:25:55;;;;;;;0.77;0.70;;;;;;;14.61;36.24;100522.28;5042154;28;20213;-60
2023/10/08 08:28:24;;;;;;;1.48;0.80;;;;;;;14.63;35.66;100535.22;5041365;28;20649;-61
2023/10/08 08:30:55;;;;;;;1.00;0.70;;;;;;;14.54;35.77;100544.03;5039740;28;20311;-62
2023/10/08 08:33:23;;;;;;;0.95;0.70;;;;;;;14.53;35.86;100528.50;5049880;28;20621;-60
2023/10/08 08:36:01;;;;;;;0.52;0.52;;;;;;;14.45;35.47;100526.91;5045632;28;20263;-61
2023/10/08 08:38:32;;;;;;;1.10;0.60;;;;;;;14.25;35.60;100534.22;5046653;28;20216;-59
2023/10/08 08:41:06;;;;;;;1.43;0.70;;;;;;;13.87;34.90;100548.69;5050523;28;20232;-58
2023/10/08 08:43:36;;;;;;;0.60;0.50;;;;;;;13.72;36.04;100541.19;5044140;28;20730;-61
2023/10/08 08:46:06;;;;;;;0.60;0.50;;;;;;;13.67;36.11;100540.41;5047853;28;20690;-59
2023/10/08 08:48:35;;;;;;;0.60;0.60;;;;;;;13.69;36.33;100552.44;5055469;28;20283;-62
2023/10/08 08:51:06;;;;;;;1.23;0.67;;;;;;;13.36;36.18;100542.63;5041268;28;20229;-59
2023/10/08 08:53:35;;;;;;;0.67;0.60;;;;;;;13.15;36.66;100546.34;5041498;28;20210;-59
2023/10/08 08:56:09;;;;;;;1.83;0.53;;;;;;;12.79;37.44;100549.41;5059161;28;20230;-59
2023/10/08 08:58:40;;;;;;;1.23;0.60;;;;;;;12.33;38.61;100544.78;5050715;28;20588;-59
2023/10/08 09:01:13;;;;;;;0.50;0.50;;;;;;;11.97;39.46;100545.16;5046287;28;20193;-58
2023/10/08 09:03:41;;;;;;;0.90;0.57;;;;;;;11.83;39.51;100563.31;5037521;28;20205;-57
2023/10/08 09:06:11;;;;;;;1.17;0.43;;;;;;;11.65;40.15;100573.78;5043292;28;20215;-59
2023/10/08 09:08:42;;;;;;;1.80;0.60;;;;;;;11.55;40.49;100562.66;5047222;28;20567;-58
2023/10/08 09:11:15;;;;;;;1.73;0.60;;;;;;;11.41;40.33;100573.06;5049038;28;20304;-60
2023/10/08 09:13:44;;;;;;;2.60;0.60;;;;;;;11.31;40.54;100574.00;5046348;28;20217;-59
2023/10/08 09:16:14;;;;;;;2.23;0.50;;;;;;;11.27;40.00;100572.31;5045062;28;20202;-54
2023/10/08 09:18:45;;;;;;;1.00;0.60;;;;;;;11.23;40.30;100570.59;5038501;28;20209;-58
2023/10/08 09:21:18;;;;;;;1.17;0.60;;;;;;;11.22;40.96;100576.63;5048032;28;20207;-57
2023/10/08 09:23:51;;;;;;;0.97;0.60;;;;;;;11.30;41.12;100582.59;5046513;28;20255;-62
2023/10/08 09:26:24;;;;;;;0.73;0.50;;;;;;;11.31;40.84;100592.91;5039271;28;20204;-61
2023/10/08 09:28:54;;;;;;;0.90;0.40;;;;;;;11.24;39.60;100587.81;5037073;28;20206;-57
2023/10/08 09:31:24;;;;;;;0.93;0.60;;;;;;;11.07;39.96;100593.88;5039320;28;20265;-60
2023/10/08 09:33:55;;;;;;;0.83;0.60;;;;;;;11.06;40.81;100587.03;5040533;28;20696;-58
2023/10/08 09:36:31;;;;;;;2.50;0.70;;;;;;;11.10;41.54;100593.88;5053439;28;20193;-58
2023/10/08 09:39:01;;;;;;;2.23;1.10;;;;;;;11.17;41.02;100601.59;5040434;28;20285;-57
2023/10/08 09:41:32;;;;;;;0.67;0.50;;;;;;;11.12;41.07;100599.03;5044962;28;20206;-63
2023/10/08 09:44:00;;;;;;;0.70;0.40;;;;;;;11.14;41.21;100592.13;5047696;28;20217;-58
2023/10/08 09:46:33;;;;;;;0.77;0.73;;;;;;;11.21;41.82;100587.81;5044661;28;20590;-60
2023/10/08 09:49:06;;;;;;;2.33;0.80;;;;;;;11.26;41.56;100614.44;5046580;28;20738;-65
2023/10/08 09:51:38;;;;;;;2.20;0.50;;;;;;;11.29;41.84;100602.38;5048790;28;20697;-62
2023/10/08 09:54:16;;;;;;;1.30;0.50;;;;;;;11.36;41.83;100601.47;5055654;28;20305;-67
2023/10/08 09:56:46;;;;;;;1.50;0.50;;;;;;;11.41;40.06;100605.75;5041502;28;20240;-64
2023/10/08 09:59:15;;;;;;;1.77;0.53;;;;;;;11.45;39.77;100613.47;5040977;28;20194;-62
2023/10/08 10:01:45;;;;;;;1.60;0.57;;;;;;;11.45;39.62;100603.16;5034272;28;20756;-63
2023/10/08 10:04:14;;;;;;;1.47;0.60;;;;;;;11.41;40.08;100613.50;5044581;28;20202;-65
2023/10/08 10:06:44;;;;;;;2.30;0.43;;;;;;;11.40;39.66;100604.03;5045145;28;20668;-63
2023/10/08 10:09:21;;;;;;;1.13;0.70;;;;;;;11.43;40.16;100622.94;5051393;28;20562;-60
2023/10/08 10:11:52;;;;;;;1.73;0.50;;;;;;;11.35;39.88;100620.41;5044240;28;20237;-65
2023/10/08 10:14:23;;;;;;;1.23;0.60;;;;;;;11.32;40.46;100632.47;5040268;28;20198;-57
2023/10/08 10:17:10;;;;;;;1.63;0.67;;;;;;;11.35;40.65;100632.47;5057485;28;20210;-59
2023/10/08 10:19:47;;;;;;;1.20;0.67;;;;;;;11.33;39.99;100626.44;5036155;28;21232;-60
2023/10/08 10:22:16;;;;;;;0.70;0.50;;;;;;;11.35;40.31;100616.97;5039738;28;20221;-59
2023/10/08 10:24:45;;;;;;;2.93;0.60;;;;;;;11.35;39.96;100624.72;5044364;28;20213;-60
2023/10/08 10:27:17;;;;;;;0.63;0.50;;;;;;;11.24;38.61;100635.09;5045423;28;20293;-58
2023/10/08 10:29:47;;;;;;;1.10;0.60;;;;;;;11.18;38.42;100621.34;5041923;28;20698;-60
2023/10/08 10:32:16;;;;;;;2.00;0.50;;;;;;;11.12;38.02;100605.06;5050102;28;20954;-57
2023/10/08 10:34:47;;;;;;;0.47;0.47;;;;;;;11.16;38.12;100618.78;5055591;28;20218;-59
2023/10/08 10:37:22;;;;;;;1.90;0.50;;;;;;;11.18;38.05;100629.94;5053792;28;20289;-58
2023/10/08 10:39:58;;;;;;;1.57;0.33;;;;;;;11.30;38.20;100626.44;5042674;28;20206;-57
2023/10/08 10:42:29;;;;;;;0.70;0.40;;;;;;;11.45;37.77;100621.22;5047623;28;20664;-58
2023/10/08 10:44:58;;;;;;;0.67;0.53;;;;;;;11.61;37.38;100628.00;5052619;28;20552;-58
2023/10/08 10:47:28;;;;;;;0.47;0.47;;;;;;;11.80;36.78;100607.22;5053239;28;20198;-58
2023/10/08 10:52:53;;;;;;;1.00;0.50;;;;;;;12.46;35.91;100623.03;5108461;27;20579;-62
2023/10/08 10:55:30;;;;;;;0.73;0.50;;;;;;;12.82;35.31;100619.19;5093124;28;20704;-61
2023/10/08 10:58:14;;;;;;;1.00;0.57;;;;;;;13.20;35.54;100601.47;5076826;28;20204;-64
2023/10/08 11:00:56;;;;;;;1.60;0.77;;;;;;;13.54;34.29;100605.31;5093678;28;20210;-63
2023/10/08 11:03:25;;;;;;;3.30;0.53;;;;;;;13.65;33.44;100609.50;5096408;28;20625;-64
2023/10/08 11:06:05;;;;;;;0.50;0.50;;;;;;;13.75;32.51;100613.66;5097249;28;20237;-64
2023/10/08 11:08:36;;;;;;;0.77;0.50;;;;;;;13.76;33.09;100621.38;5089273;28;20606;-64
2023/10/08 11:11:09;;;;;;;0.73;0.30;;;;;;;13.82;32.29;100625.63;5094517;28;20217;-64
2023/10/08 11:13:49;;;;;;;2.43;0.73;;;;;;;14.08;31.99;100629.53;5091861;28;20204;-62
2023/10/08 11:16:21;;;;;;;3.20;0.40;;;;;;;14.22;31.68;100620.66;5088448;28;20219;-64
2023/10/08 11:18:57;;;;;;;1.83;0.63;;;;;;;14.38;31.21;100613.44;5090378;28;20204;-64
2023/10/08 11:21:31;;;;;;;0.40;0.40;;;;;;;14.55;30.74;100628.75;5088522;28;20338;-64
2023/10/08 11:24:08;;;;;;;2.73;0.57;;;;;;;14.63;30.19;100628.59;5095590;28;20205;-64
2023/10/08 11:26:39;;;;;;;1.07;0.60;;;;;;;14.61;29.18;100632.94;5083381;28;20288;-63
2023/10/08 11:29:14;;;;;;;0.70;0.47;;;;;;;14.33;28.79;100641.22;5090333;28;20717;-63
2023/10/08 11:31:43;;;;;;;0.50;0.50;;;;;;;14.14;28.88;100644.97;5094515;28;20677;-64
2023/10/08 11:34:14;;;;;;;0.60;0.50;;;;;;;14.02;28.89;100640.84;5091369;28;20540;-62
2023/10/08 11:36:55;;;;;;;0.70;0.47;;;;;;;13.98;29.15;100627.09;5089514;28;20211;-65
2023/10/08 11:39:30;;;;;;;0.40;0.40;;;;;;;14.12;29.22;100646.75;5091174;28;20200;-63
2023/10/08 11:42:06;;;;;;;0.83;0.50;;;;;;;14.10;28.52;100648.50;5088085;28;20196;-63
2023/10/08 11:44:35;;;;;;;0.50;0.50;;;;;;;13.82;29.15;100636.00;5081773;28;20655;-63
2023/10/08 11:47:11;;;;;;;0.57;0.50;;;;;;;13.54;29.17;100638.13;5087967;28;20201;-64
2023/10/08 11:49:46;;;;;;;0.40;0.40;;;;;;;13.51;29.58;100633.88;5084043;28;20542;-64
2023/10/08 11:52:16;;;;;;;1.57;0.40;;;;;;;13.46;30.45;100640.81;5085324;28;20267;-64
2023/10/08 11:54:48;;;;;;;0.67;0.67;;;;;;;13.62;30.42;100650.97;5072860;28;20315;-65
2023/10/08 11:57:21;;;;;;;0.90;0.53;;;;;;;13.79;29.51;100641.22;5098331;28;20209;-64
2023/10/08 11:59:54;;;;;;;0.83;0.50;;;;;;;14.07;30.11;100649.44;5084774;28;20200;-64
2023/10/08 12:02:26;;;;;;;0.60;0.40;;;;;;;14.16;29.05;100635.44;5083902;28;20217;-64
2023/10/08 12:04:57;;;;;;;1.43;0.33;;;;;;;14.31;29.15;100652.47;5085328;28;20278;-62
2023/10/08 12:07:27;;;;;;;0.70;0.40;;;;;;;14.31;29.21;100655.06;5071376;28;20691;-63
2023/10/08 12:09:57;;;;;;;0.97;0.50;;;;;;;14.29;29.01;100649.91;5078971;28;20590;-63
2023/10/08 12:12:27;;;;;;;1.47;0.40;;;;;;;14.08;28.70;100660.63;5078878;28;20354;-63
2023/10/08 12:14:55;;;;;;;1.03;0.53;;;;;;;13.80;29.05;100650.69;5072658;28;20664;-62
2023/10/08 12:17:39;;;;;;;2.17;0.50;;;;;;;13.74;28.35;100653.38;5074777;28;20631;-63